sensor_id;sensor_type;location;lat;lon;timestamp;P1;durP1;ratioP1;P2;durP2;ratioP2
79611;SDS011;69094;48.154;11.536;2024-01-25T00:00:17;8.57;;;1.45;;
79611;SDS011;69094;48.154;11.536;2024-01-25T00:05:07;6.20;;;1.17;;
79611;SDS011;69094;48.154;11.536;2024-01-25T00:09:58;5.90;;;1.47;;
79611;SDS011;69094;48.154;11.536;2024-01-25T00:14:49;7.20;;;1.57;;
79611;SDS011;69094;48.154;11.536;2024-01-25T00:19:39;10.10;;;2.30;;
79611;SDS011;69094;48.154;11.536;2024-01-25T00:22:06;5.75;;;1.05;;
79611;SDS011;69094;48.154;11.536;2024-01-25T00:24:32;9.35;;;1.30;;
79611;SDS011;69094;48.154;11.536;2024-01-25T00:26:58;4.35;;;1.67;;
79611;SDS011;69094;48.154;11.536;2024-01-25T00:29:23;4.38;;;1.48;;
79611;SDS011;69094;48.154;11.536;2024-01-25T00:31:49;6.70;;;1.10;;
79611;SDS011;69094;48.154;11.536;2024-01-25T00:36:40;6.63;;;1.52;;
79611;SDS011;69094;48.154;11.536;2024-01-25T00:41:32;6.95;;;1.42;;
79611;SDS011;69094;48.154;11.536;2024-01-25T00:43:58;4.20;;;1.08;;
79611;SDS011;69094;48.154;11.536;2024-01-25T00:46:24;6.75;;;1.70;;
79611;SDS011;69094;48.154;11.536;2024-01-25T00:48:49;2.85;;;1.10;;
79611;SDS011;69094;48.154;11.536;2024-01-25T00:53:44;7.95;;;1.52;;
79611;SDS011;69094;48.154;11.536;2024-01-25T00:56:10;4.50;;;0.95;;
79611;SDS011;69094;48.154;11.536;2024-01-25T00:58:36;4.65;;;1.20;;
79611;SDS011;69094;48.154;11.536;2024-01-25T01:01:01;2.90;;;1.17;;
79611;SDS011;69094;48.154;11.536;2024-01-25T01:03:27;9.50;;;1.75;;
79611;SDS011;69094;48.154;11.536;2024-01-25T01:08:18;4.65;;;1.15;;
79611;SDS011;69094;48.154;11.536;2024-01-25T01:13:09;5.57;;;1.50;;
79611;SDS011;69094;48.154;11.536;2024-01-25T01:15:34;5.63;;;1.65;;
79611;SDS011;69094;48.154;11.536;2024-01-25T01:18:00;9.63;;;1.50;;
79611;SDS011;69094;48.154;11.536;2024-01-25T01:20:25;5.47;;;2.10;;
79611;SDS011;69094;48.154;11.536;2024-01-25T01:22:51;8.10;;;1.20;;
79611;SDS011;69094;48.154;11.536;2024-01-25T01:25:17;4.40;;;1.40;;
79611;SDS011;69094;48.154;11.536;2024-01-25T01:27:42;5.93;;;1.38;;
79611;SDS011;69094;48.154;11.536;2024-01-25T01:32:34;3.75;;;1.05;;
79611;SDS011;69094;48.154;11.536;2024-01-25T01:34:59;5.47;;;1.02;;
79611;SDS011;69094;48.154;11.536;2024-01-25T01:39:50;6.27;;;0.87;;
79611;SDS011;69094;48.154;11.536;2024-01-25T01:42:16;8.63;;;1.10;;
79611;SDS011;69094;48.154;11.536;2024-01-25T01:44:41;3.63;;;0.80;;
79611;SDS011;69094;48.154;11.536;2024-01-25T01:47:06;9.73;;;1.60;;
79611;SDS011;69094;48.154;11.536;2024-01-25T01:49:32;11.40;;;1.73;;
79611;SDS011;69094;48.154;11.536;2024-01-25T01:51:58;5.43;;;1.27;;
79611;SDS011;69094;48.154;11.536;2024-01-25T01:56:49;5.65;;;1.08;;
79611;SDS011;69094;48.154;11.536;2024-01-25T01:59:15;6.75;;;1.08;;
79611;SDS011;69094;48.154;11.536;2024-01-25T02:01:41;8.65;;;1.45;;
79611;SDS011;69094;48.154;11.536;2024-01-25T02:04:06;6.03;;;1.65;;
79611;SDS011;69094;48.154;11.536;2024-01-25T02:08:58;4.85;;;1.00;;
79611;SDS011;69094;48.154;11.536;2024-01-25T02:13:49;5.22;;;1.13;;
79611;SDS011;69094;48.154;11.536;2024-01-25T02:18:40;4.72;;;1.17;;
79611;SDS011;69094;48.154;11.536;2024-01-25T02:21:06;5.43;;;1.30;;
79611;SDS011;69094;48.154;11.536;2024-01-25T02:23:31;10.20;;;1.20;;
79611;SDS011;69094;48.154;11.536;2024-01-25T02:25:57;8.80;;;1.47;;
79611;SDS011;69094;48.154;11.536;2024-01-25T02:28:22;8.50;;;1.75;;
79611;SDS011;69094;48.154;11.536;2024-01-25T02:30:47;8.85;;;1.45;;
79611;SDS011;69094;48.154;11.536;2024-01-25T02:33:13;6.53;;;1.17;;
79611;SDS011;69094;48.154;11.536;2024-01-25T02:38:03;6.60;;;1.67;;
79611;SDS011;69094;48.154;11.536;2024-01-25T02:42:54;8.60;;;1.10;;
79611;SDS011;69094;48.154;11.536;2024-01-25T02:45:21;7.03;;;1.00;;
79611;SDS011;69094;48.154;11.536;2024-01-25T02:47:46;5.65;;;1.30;;
79611;SDS011;69094;48.154;11.536;2024-01-25T02:52:37;5.80;;;1.10;;
79611;SDS011;69094;48.154;11.536;2024-01-25T02:57:28;5.60;;;1.30;;
79611;SDS011;69094;48.154;11.536;2024-01-25T02:59:54;6.95;;;1.30;;
79611;SDS011;69094;48.154;11.536;2024-01-25T03:02:19;7.97;;;1.47;;
79611;SDS011;69094;48.154;11.536;2024-01-25T03:04:45;5.32;;;1.58;;
79611;SDS011;69094;48.154;11.536;2024-01-25T03:07:11;10.75;;;1.60;;
79611;SDS011;69094;48.154;11.536;2024-01-25T03:09:36;7.10;;;1.33;;
79611;SDS011;69094;48.154;11.536;2024-01-25T03:14:27;8.13;;;1.35;;
79611;SDS011;69094;48.154;11.536;2024-01-25T03:19:18;6.80;;;0.90;;
79611;SDS011;69094;48.154;11.536;2024-01-25T03:21:43;9.73;;;1.10;;
79611;SDS011;69094;48.154;11.536;2024-01-25T03:24:08;9.03;;;1.37;;
79611;SDS011;69094;48.154;11.536;2024-01-25T03:28:59;3.23;;;1.60;;
79611;SDS011;69094;48.154;11.536;2024-01-25T03:33:50;9.43;;;1.50;;
79611;SDS011;69094;48.154;11.536;2024-01-25T03:38:40;4.63;;;1.50;;
79611;SDS011;69094;48.154;11.536;2024-01-25T03:43:31;4.00;;;1.57;;
79611;SDS011;69094;48.154;11.536;2024-01-25T03:45:57;5.00;;;1.60;;
79611;SDS011;69094;48.154;11.536;2024-01-25T03:50:47;6.40;;;1.47;;
79611;SDS011;69094;48.154;11.536;2024-01-25T03:55:38;4.43;;;0.90;;
79611;SDS011;69094;48.154;11.536;2024-01-25T04:00:29;5.40;;;0.70;;
79611;SDS011;69094;48.154;11.536;2024-01-25T04:02:54;7.30;;;1.05;;
79611;SDS011;69094;48.154;11.536;2024-01-25T04:05:19;4.07;;;0.85;;
79611;SDS011;69094;48.154;11.536;2024-01-25T04:10:11;3.08;;;1.00;;
79611;SDS011;69094;48.154;11.536;2024-01-25T04:15:01;3.87;;;0.90;;
79611;SDS011;69094;48.154;11.536;2024-01-25T04:19:52;4.60;;;1.10;;
79611;SDS011;69094;48.154;11.536;2024-01-25T04:24:43;8.07;;;1.63;;
79611;SDS011;69094;48.154;11.536;2024-01-25T04:29:37;3.53;;;0.70;;
79611;SDS011;69094;48.154;11.536;2024-01-25T04:32:04;6.53;;;1.08;;
79611;SDS011;69094;48.154;11.536;2024-01-25T04:34:29;4.05;;;1.45;;
79611;SDS011;69094;48.154;11.536;2024-01-25T04:39:20;5.43;;;1.17;;
79611;SDS011;69094;48.154;11.536;2024-01-25T04:41:47;10.07;;;1.10;;
79611;SDS011;69094;48.154;11.536;2024-01-25T04:44:12;4.90;;;1.00;;
79611;SDS011;69094;48.154;11.536;2024-01-25T04:49:03;5.83;;;0.90;;
79611;SDS011;69094;48.154;11.536;2024-01-25T04:53:54;2.67;;;1.00;;
79611;SDS011;69094;48.154;11.536;2024-01-25T04:56:19;6.00;;;1.10;;
79611;SDS011;69094;48.154;11.536;2024-01-25T05:01:10;4.68;;;1.40;;
79611;SDS011;69094;48.154;11.536;2024-01-25T05:06:02;7.40;;;1.58;;
79611;SDS011;69094;48.154;11.536;2024-01-25T05:10:52;5.07;;;1.27;;
79611;SDS011;69094;48.154;11.536;2024-01-25T05:15:44;5.40;;;1.13;;
79611;SDS011;69094;48.154;11.536;2024-01-25T05:20:34;7.13;;;1.10;;
79611;SDS011;69094;48.154;11.536;2024-01-25T05:23:02;7.05;;;1.10;;
79611;SDS011;69094;48.154;11.536;2024-01-25T05:25:28;4.32;;;1.10;;
79611;SDS011;69094;48.154;11.536;2024-01-25T05:27:54;5.20;;;1.20;;
79611;SDS011;69094;48.154;11.536;2024-01-25T05:30:26;8.25;;;1.17;;
79611;SDS011;69094;48.154;11.536;2024-01-25T05:32:52;3.72;;;0.98;;
79611;SDS011;69094;48.154;11.536;2024-01-25T05:35:19;8.45;;;1.27;;
79611;SDS011;69094;48.154;11.536;2024-01-25T05:37:44;1.83;;;0.90;;
79611;SDS011;69094;48.154;11.536;2024-01-25T05:40:10;3.10;;;0.60;;
79611;SDS011;69094;48.154;11.536;2024-01-25T05:42:36;4.15;;;1.00;;
79611;SDS011;69094;48.154;11.536;2024-01-25T05:47:28;4.25;;;1.13;;
79611;SDS011;69094;48.154;11.536;2024-01-25T05:49:53;3.05;;;0.90;;
79611;SDS011;69094;48.154;11.536;2024-01-25T05:54:45;4.00;;;1.17;;
79611;SDS011;69094;48.154;11.536;2024-01-25T05:57:11;4.00;;;1.20;;
79611;SDS011;69094;48.154;11.536;2024-01-25T06:02:01;3.03;;;1.23;;
79611;SDS011;69094;48.154;11.536;2024-01-25T06:04:27;8.38;;;1.50;;
79611;SDS011;69094;48.154;11.536;2024-01-25T06:09:18;8.40;;;1.03;;
79611;SDS011;69094;48.154;11.536;2024-01-25T06:14:08;6.13;;;1.67;;
79611;SDS011;69094;48.154;11.536;2024-01-25T06:16:34;3.80;;;1.13;;
79611;SDS011;69094;48.154;11.536;2024-01-25T06:21:26;6.30;;;1.17;;
79611;SDS011;69094;48.154;11.536;2024-01-25T06:26:17;4.77;;;1.10;;
79611;SDS011;69094;48.154;11.536;2024-01-25T06:31:07;6.53;;;1.00;;
79611;SDS011;69094;48.154;11.536;2024-01-25T06:35:59;4.85;;;1.42;;
79611;SDS011;69094;48.154;11.536;2024-01-25T06:40:50;5.47;;;2.07;;
79611;SDS011;69094;48.154;11.536;2024-01-25T06:45:40;3.90;;;1.20;;
79611;SDS011;69094;48.154;11.536;2024-01-25T06:48:06;11.45;;;2.08;;
79611;SDS011;69094;48.154;11.536;2024-01-25T06:50:33;10.98;;;1.23;;
79611;SDS011;69094;48.154;11.536;2024-01-25T06:52:59;11.23;;;1.70;;
79611;SDS011;69094;48.154;11.536;2024-01-25T06:57:49;8.63;;;1.33;;
79611;SDS011;69094;48.154;11.536;2024-01-25T07:02:41;7.32;;;1.35;;
79611;SDS011;69094;48.154;11.536;2024-01-25T07:05:07;11.23;;;3.17;;
79611;SDS011;69094;48.154;11.536;2024-01-25T07:07:33;3.63;;;1.38;;
79611;SDS011;69094;48.154;11.536;2024-01-25T07:12:24;5.90;;;1.43;;
79611;SDS011;69094;48.154;11.536;2024-01-25T07:17:15;6.03;;;1.50;;
79611;SDS011;69094;48.154;11.536;2024-01-25T07:22:05;3.23;;;1.10;;
79611;SDS011;69094;48.154;11.536;2024-01-25T07:26:56;7.38;;;1.52;;
79611;SDS011;69094;48.154;11.536;2024-01-25T07:31:47;6.00;;;1.25;;
79611;SDS011;69094;48.154;11.536;2024-01-25T07:36:38;8.60;;;1.23;;
79611;SDS011;69094;48.154;11.536;2024-01-25T07:41:29;6.38;;;1.60;;
79611;SDS011;69094;48.154;11.536;2024-01-25T07:46:20;8.57;;;1.37;;
79611;SDS011;69094;48.154;11.536;2024-01-25T07:48:47;3.20;;;1.40;;
79611;SDS011;69094;48.154;11.536;2024-01-25T07:51:13;9.25;;;1.40;;
79611;SDS011;69094;48.154;11.536;2024-01-25T07:53:38;8.27;;;1.67;;
79611;SDS011;69094;48.154;11.536;2024-01-25T07:56:06;9.82;;;1.77;;
79611;SDS011;69094;48.154;11.536;2024-01-25T07:58:32;6.60;;;1.60;;
79611;SDS011;69094;48.154;11.536;2024-01-25T08:00:58;6.32;;;1.52;;
79611;SDS011;69094;48.154;11.536;2024-01-25T08:05:48;6.03;;;1.23;;
79611;SDS011;69094;48.154;11.536;2024-01-25T08:10:39;3.67;;;1.40;;
79611;SDS011;69094;48.154;11.536;2024-01-25T08:15:29;9.90;;;1.60;;
79611;SDS011;69094;48.154;11.536;2024-01-25T08:20:20;4.33;;;1.13;;
79611;SDS011;69094;48.154;11.536;2024-01-25T08:22:45;10.27;;;1.50;;
79611;SDS011;69094;48.154;11.536;2024-01-25T08:27:38;12.32;;;1.50;;
79611;SDS011;69094;48.154;11.536;2024-01-25T08:30:04;6.50;;;1.20;;
79611;SDS011;69094;48.154;11.536;2024-01-25T08:32:30;7.75;;;1.77;;
79611;SDS011;69094;48.154;11.536;2024-01-25T08:34:56;6.03;;;1.52;;
79611;SDS011;69094;48.154;11.536;2024-01-25T08:39:46;4.03;;;0.93;;
79611;SDS011;69094;48.154;11.536;2024-01-25T08:42:16;6.38;;;1.60;;
79611;SDS011;69094;48.154;11.536;2024-01-25T08:44:42;9.10;;;1.80;;
79611;SDS011;69094;48.154;11.536;2024-01-25T08:47:14;12.70;;;1.83;;
79611;SDS011;69094;48.154;11.536;2024-01-25T08:49:40;8.85;;;1.38;;
79611;SDS011;69094;48.154;11.536;2024-01-25T08:52:06;5.68;;;1.90;;
79611;SDS011;69094;48.154;11.536;2024-01-25T08:54:32;12.00;;;1.60;;
79611;SDS011;69094;48.154;11.536;2024-01-25T08:56:57;6.90;;;1.48;;
79611;SDS011;69094;48.154;11.536;2024-01-25T08:59:23;9.95;;;1.73;;
79611;SDS011;69094;48.154;11.536;2024-01-25T09:01:48;7.85;;;1.60;;
79611;SDS011;69094;48.154;11.536;2024-01-25T09:04:13;8.43;;;1.80;;
79611;SDS011;69094;48.154;11.536;2024-01-25T09:06:39;9.65;;;1.83;;
79611;SDS011;69094;48.154;11.536;2024-01-25T09:09:04;6.13;;;1.75;;
79611;SDS011;69094;48.154;11.536;2024-01-25T09:11:30;7.97;;;1.67;;
79611;SDS011;69094;48.154;11.536;2024-01-25T09:13:56;9.27;;;3.75;;
79611;SDS011;69094;48.154;11.536;2024-01-25T09:16:21;17.73;;;4.93;;
79611;SDS011;69094;48.154;11.536;2024-01-25T09:18:47;5.93;;;1.90;;
79611;SDS011;69094;48.154;11.536;2024-01-25T09:21:13;9.80;;;2.05;;
79611;SDS011;69094;48.154;11.536;2024-01-25T09:23:39;8.98;;;1.65;;
79611;SDS011;69094;48.154;11.536;2024-01-25T09:26:05;19.08;;;8.18;;
79611;SDS011;69094;48.154;11.536;2024-01-25T09:28:30;10.57;;;2.40;;
79611;SDS011;69094;48.154;11.536;2024-01-25T09:30:55;12.07;;;1.67;;
79611;SDS011;69094;48.154;11.536;2024-01-25T09:33:20;12.73;;;2.17;;
79611;SDS011;69094;48.154;11.536;2024-01-25T09:35:46;12.80;;;2.90;;
79611;SDS011;69094;48.154;11.536;2024-01-25T09:38:12;10.68;;;2.58;;
79611;SDS011;69094;48.154;11.536;2024-01-25T09:40:38;6.82;;;2.05;;
79611;SDS011;69094;48.154;11.536;2024-01-25T09:43:04;8.13;;;1.90;;
79611;SDS011;69094;48.154;11.536;2024-01-25T09:45:30;9.98;;;2.30;;
79611;SDS011;69094;48.154;11.536;2024-01-25T09:47:57;7.60;;;1.67;;
79611;SDS011;69094;48.154;11.536;2024-01-25T09:50:22;10.93;;;2.22;;
79611;SDS011;69094;48.154;11.536;2024-01-25T09:52:50;6.75;;;1.33;;
79611;SDS011;69094;48.154;11.536;2024-01-25T09:55:24;10.45;;;1.80;;
79611;SDS011;69094;48.154;11.536;2024-01-25T09:57:52;7.30;;;1.90;;
79611;SDS011;69094;48.154;11.536;2024-01-25T10:00:20;12.32;;;1.88;;
79611;SDS011;69094;48.154;11.536;2024-01-25T10:02:47;12.05;;;2.20;;
79611;SDS011;69094;48.154;11.536;2024-01-25T10:05:14;11.68;;;2.15;;
79611;SDS011;69094;48.154;11.536;2024-01-25T10:07:43;4.40;;;1.60;;
79611;SDS011;69094;48.154;11.536;2024-01-25T10:10:09;6.57;;;1.60;;
79611;SDS011;69094;48.154;11.536;2024-01-25T10:12:39;5.93;;;1.42;;
79611;SDS011;69094;48.154;11.536;2024-01-25T10:15:07;28.63;;;7.18;;
79611;SDS011;69094;48.154;11.536;2024-01-25T10:17:33;9.63;;;2.25;;
79611;SDS011;69094;48.154;11.536;2024-01-25T10:19:59;11.00;;;2.38;;
79611;SDS011;69094;48.154;11.536;2024-01-25T10:22:24;6.22;;;2.28;;
79611;SDS011;69094;48.154;11.536;2024-01-25T10:24:50;11.00;;;2.30;;
79611;SDS011;69094;48.154;11.536;2024-01-25T10:27:16;14.18;;;2.22;;
79611;SDS011;69094;48.154;11.536;2024-01-25T10:29:42;16.35;;;2.13;;
79611;SDS011;69094;48.154;11.536;2024-01-25T10:32:08;11.45;;;2.22;;
79611;SDS011;69094;48.154;11.536;2024-01-25T10:34:35;9.18;;;1.73;;
79611;SDS011;69094;48.154;11.536;2024-01-25T10:37:02;4.57;;;1.52;;
79611;SDS011;69094;48.154;11.536;2024-01-25T10:39:30;6.80;;;1.50;;
79611;SDS011;69094;48.154;11.536;2024-01-25T10:41:56;9.52;;;1.95;;
79611;SDS011;69094;48.154;11.536;2024-01-25T10:44:24;9.70;;;3.17;;
79611;SDS011;69094;48.154;11.536;2024-01-25T10:46:49;9.13;;;1.48;;
79611;SDS011;69094;48.154;11.536;2024-01-25T10:49:16;8.70;;;2.22;;
79611;SDS011;69094;48.154;11.536;2024-01-25T10:51:43;8.07;;;2.05;;
79611;SDS011;69094;48.154;11.536;2024-01-25T10:54:10;8.20;;;2.00;;
79611;SDS011;69094;48.154;11.536;2024-01-25T10:56:44;5.88;;;1.65;;
79611;SDS011;69094;48.154;11.536;2024-01-25T10:59:12;10.32;;;2.53;;
79611;SDS011;69094;48.154;11.536;2024-01-25T11:01:43;9.20;;;2.08;;
79611;SDS011;69094;48.154;11.536;2024-01-25T11:04:16;11.30;;;2.75;;
79611;SDS011;69094;48.154;11.536;2024-01-25T11:06:43;10.52;;;2.47;;
79611;SDS011;69094;48.154;11.536;2024-01-25T11:09:10;8.02;;;2.05;;
79611;SDS011;69094;48.154;11.536;2024-01-25T11:11:46;10.07;;;1.63;;
79611;SDS011;69094;48.154;11.536;2024-01-25T11:14:14;8.75;;;1.77;;
79611;SDS011;69094;48.154;11.536;2024-01-25T11:16:41;9.27;;;3.17;;
79611;SDS011;69094;48.154;11.536;2024-01-25T11:19:15;8.90;;;1.83;;
79611;SDS011;69094;48.154;11.536;2024-01-25T11:21:43;7.35;;;1.63;;
79611;SDS011;69094;48.154;11.536;2024-01-25T11:24:25;11.60;;;2.38;;
79611;SDS011;69094;48.154;11.536;2024-01-25T11:26:51;10.10;;;2.40;;
79611;SDS011;69094;48.154;11.536;2024-01-25T11:29:19;6.93;;;1.90;;
79611;SDS011;69094;48.154;11.536;2024-01-25T11:31:48;8.05;;;2.13;;
79611;SDS011;69094;48.154;11.536;2024-01-25T11:34:15;8.35;;;1.70;;
79611;SDS011;69094;48.154;11.536;2024-01-25T11:36:43;18.08;;;4.78;;
79611;SDS011;69094;48.154;11.536;2024-01-25T11:39:09;8.18;;;2.03;;
79611;SDS011;69094;48.154;11.536;2024-01-25T11:41:36;7.85;;;2.10;;
79611;SDS011;69094;48.154;11.536;2024-01-25T11:44:02;8.52;;;2.13;;
79611;SDS011;69094;48.154;11.536;2024-01-25T11:46:28;5.47;;;2.10;;
79611;SDS011;69094;48.154;11.536;2024-01-25T11:48:55;8.30;;;2.13;;
79611;SDS011;69094;48.154;11.536;2024-01-25T11:51:20;8.27;;;1.73;;
79611;SDS011;69094;48.154;11.536;2024-01-25T11:53:46;13.07;;;2.85;;
79611;SDS011;69094;48.154;11.536;2024-01-25T11:56:22;6.13;;;1.85;;
79611;SDS011;69094;48.154;11.536;2024-01-25T11:58:52;6.75;;;1.80;;
79611;SDS011;69094;48.154;11.536;2024-01-25T12:01:18;6.82;;;1.80;;
79611;SDS011;69094;48.154;11.536;2024-01-25T12:03:45;7.45;;;2.00;;
79611;SDS011;69094;48.154;11.536;2024-01-25T12:06:11;4.60;;;1.20;;
79611;SDS011;69094;48.154;11.536;2024-01-25T12:08:37;7.70;;;2.40;;
79611;SDS011;69094;48.154;11.536;2024-01-25T12:11:06;7.05;;;1.70;;
79611;SDS011;69094;48.154;11.536;2024-01-25T12:13:38;4.57;;;1.38;;
79611;SDS011;69094;48.154;11.536;2024-01-25T12:16:04;8.00;;;1.42;;
79611;SDS011;69094;48.154;11.536;2024-01-25T12:18:30;8.45;;;1.60;;
79611;SDS011;69094;48.154;11.536;2024-01-25T12:20:58;7.90;;;1.40;;
79611;SDS011;69094;48.154;11.536;2024-01-25T12:23:34;10.30;;;1.98;;
79611;SDS011;69094;48.154;11.536;2024-01-25T12:26:05;7.78;;;1.30;;
79611;SDS011;69094;48.154;11.536;2024-01-25T12:28:31;6.93;;;1.55;;
79611;SDS011;69094;48.154;11.536;2024-01-25T12:30:58;11.32;;;3.20;;
79611;SDS011;69094;48.154;11.536;2024-01-25T12:33:28;7.70;;;1.33;;
79611;SDS011;69094;48.154;11.536;2024-01-25T12:35:53;7.65;;;2.17;;
79611;SDS011;69094;48.154;11.536;2024-01-25T12:38:19;8.65;;;1.27;;
79611;SDS011;69094;48.154;11.536;2024-01-25T12:40:46;4.25;;;1.33;;
79611;SDS011;69094;48.154;11.536;2024-01-25T12:43:13;6.22;;;1.55;;
79611;SDS011;69094;48.154;11.536;2024-01-25T12:45:39;2.55;;;1.30;;
79611;SDS011;69094;48.154;11.536;2024-01-25T12:48:05;7.72;;;1.67;;
79611;SDS011;69094;48.154;11.536;2024-01-25T12:50:32;6.03;;;1.20;;
79611;SDS011;69094;48.154;11.536;2024-01-25T12:52:58;7.68;;;1.25;;
79611;SDS011;69094;48.154;11.536;2024-01-25T12:55:24;6.45;;;1.80;;
79611;SDS011;69094;48.154;11.536;2024-01-25T12:57:50;8.48;;;1.67;;
79611;SDS011;69094;48.154;11.536;2024-01-25T13:00:15;7.05;;;1.65;;
79611;SDS011;69094;48.154;11.536;2024-01-25T13:02:41;5.15;;;1.55;;
79611;SDS011;69094;48.154;11.536;2024-01-25T13:05:06;6.43;;;1.63;;
79611;SDS011;69094;48.154;11.536;2024-01-25T13:07:31;7.13;;;1.60;;
79611;SDS011;69094;48.154;11.536;2024-01-25T13:09:57;7.73;;;1.60;;
79611;SDS011;69094;48.154;11.536;2024-01-25T13:12:22;8.20;;;1.80;;
79611;SDS011;69094;48.154;11.536;2024-01-25T13:14:48;8.20;;;1.43;;
79611;SDS011;69094;48.154;11.536;2024-01-25T13:17:13;6.50;;;1.60;;
79611;SDS011;69094;48.154;11.536;2024-01-25T13:19:38;5.63;;;1.63;;
79611;SDS011;69094;48.154;11.536;2024-01-25T13:22:04;5.63;;;1.20;;
79611;SDS011;69094;48.154;11.536;2024-01-25T13:24:29;4.35;;;1.63;;
79611;SDS011;69094;48.154;11.536;2024-01-25T13:26:55;5.23;;;1.43;;
79611;SDS011;69094;48.154;11.536;2024-01-25T13:29:20;7.30;;;1.27;;
79611;SDS011;69094;48.154;11.536;2024-01-25T13:31:45;2.90;;;1.20;;
79611;SDS011;69094;48.154;11.536;2024-01-25T13:34:13;9.18;;;1.50;;
79611;SDS011;69094;48.154;11.536;2024-01-25T13:36:39;6.90;;;1.50;;
79611;SDS011;69094;48.154;11.536;2024-01-25T13:39:05;2.77;;;1.20;;
79611;SDS011;69094;48.154;11.536;2024-01-25T13:41:30;4.40;;;1.35;;
79611;SDS011;69094;48.154;11.536;2024-01-25T13:43:56;4.97;;;1.00;;
79611;SDS011;69094;48.154;11.536;2024-01-25T13:46:21;8.03;;;1.20;;
79611;SDS011;69094;48.154;11.536;2024-01-25T13:48:46;3.80;;;1.10;;
79611;SDS011;69094;48.154;11.536;2024-01-25T13:51:12;4.80;;;1.30;;
79611;SDS011;69094;48.154;11.536;2024-01-25T13:53:37;6.00;;;1.27;;
79611;SDS011;69094;48.154;11.536;2024-01-25T13:56:03;6.80;;;0.95;;
79611;SDS011;69094;48.154;11.536;2024-01-25T13:58:28;7.63;;;1.20;;
79611;SDS011;69094;48.154;11.536;2024-01-25T14:00:54;5.50;;;1.40;;
79611;SDS011;69094;48.154;11.536;2024-01-25T14:03:21;6.13;;;1.30;;
79611;SDS011;69094;48.154;11.536;2024-01-25T14:05:46;5.32;;;1.60;;
79611;SDS011;69094;48.154;11.536;2024-01-25T14:08:12;8.63;;;1.48;;
79611;SDS011;69094;48.154;11.536;2024-01-25T14:10:37;5.90;;;1.10;;
79611;SDS011;69094;48.154;11.536;2024-01-25T14:13:03;5.85;;;1.05;;
79611;SDS011;69094;48.154;11.536;2024-01-25T14:15:28;8.68;;;1.60;;
79611;SDS011;69094;48.154;11.536;2024-01-25T14:17:54;6.68;;;1.40;;
79611;SDS011;69094;48.154;11.536;2024-01-25T14:20:19;9.02;;;2.05;;
79611;SDS011;69094;48.154;11.536;2024-01-25T14:22:45;18.17;;;5.90;;
79611;SDS011;69094;48.154;11.536;2024-01-25T14:25:10;11.55;;;3.90;;
79611;SDS011;69094;48.154;11.536;2024-01-25T14:27:37;4.10;;;1.27;;
79611;SDS011;69094;48.154;11.536;2024-01-25T14:30:02;6.85;;;1.35;;
79611;SDS011;69094;48.154;11.536;2024-01-25T14:32:29;5.93;;;1.67;;
79611;SDS011;69094;48.154;11.536;2024-01-25T14:34:54;8.07;;;1.73;;
79611;SDS011;69094;48.154;11.536;2024-01-25T14:37:20;6.47;;;1.67;;
79611;SDS011;69094;48.154;11.536;2024-01-25T14:39:45;6.13;;;1.80;;
79611;SDS011;69094;48.154;11.536;2024-01-25T14:42:11;7.07;;;1.65;;
79611;SDS011;69094;48.154;11.536;2024-01-25T14:44:37;4.50;;;1.02;;
79611;SDS011;69094;48.154;11.536;2024-01-25T14:47:03;9.80;;;1.55;;
79611;SDS011;69094;48.154;11.536;2024-01-25T14:49:29;9.02;;;2.10;;
79611;SDS011;69094;48.154;11.536;2024-01-25T14:51:54;8.93;;;2.17;;
79611;SDS011;69094;48.154;11.536;2024-01-25T14:54:19;9.48;;;1.90;;
79611;SDS011;69094;48.154;11.536;2024-01-25T14:56:45;4.87;;;1.73;;
79611;SDS011;69094;48.154;11.536;2024-01-25T14:59:10;6.65;;;1.92;;
79611;SDS011;69094;48.154;11.536;2024-01-25T15:01:35;10.45;;;2.42;;
79611;SDS011;69094;48.154;11.536;2024-01-25T15:04:01;7.72;;;2.72;;
79611;SDS011;69094;48.154;11.536;2024-01-25T15:06:26;10.20;;;2.28;;
79611;SDS011;69094;48.154;11.536;2024-01-25T15:08:52;10.25;;;4.18;;
79611;SDS011;69094;48.154;11.536;2024-01-25T15:11:17;12.52;;;4.57;;
79611;SDS011;69094;48.154;11.536;2024-01-25T15:13:43;7.18;;;2.92;;
79611;SDS011;69094;48.154;11.536;2024-01-25T15:16:08;8.57;;;2.50;;
79611;SDS011;69094;48.154;11.536;2024-01-25T15:18:34;6.90;;;2.42;;
79611;SDS011;69094;48.154;11.536;2024-01-25T15:21:00;10.77;;;2.33;;
79611;SDS011;69094;48.154;11.536;2024-01-25T15:23:25;10.27;;;2.40;;
79611;SDS011;69094;48.154;11.536;2024-01-25T15:25:51;8.95;;;2.70;;
79611;SDS011;69094;48.154;11.536;2024-01-25T15:28:16;8.35;;;2.05;;
79611;SDS011;69094;48.154;11.536;2024-01-25T15:30:42;8.00;;;2.85;;
79611;SDS011;69094;48.154;11.536;2024-01-25T15:33:07;6.43;;;1.80;;
79611;SDS011;69094;48.154;11.536;2024-01-25T15:35:33;6.38;;;1.92;;
79611;SDS011;69094;48.154;11.536;2024-01-25T15:37:58;6.82;;;1.58;;
79611;SDS011;69094;48.154;11.536;2024-01-25T15:40:30;9.23;;;2.80;;
79611;SDS011;69094;48.154;11.536;2024-01-25T15:42:59;11.77;;;2.20;;
79611;SDS011;69094;48.154;11.536;2024-01-25T15:45:24;9.75;;;2.58;;
79611;SDS011;69094;48.154;11.536;2024-01-25T15:47:50;9.40;;;2.40;;
79611;SDS011;69094;48.154;11.536;2024-01-25T15:50:15;4.97;;;2.08;;
79611;SDS011;69094;48.154;11.536;2024-01-25T15:52:44;6.47;;;1.90;;
79611;SDS011;69094;48.154;11.536;2024-01-25T15:55:09;9.32;;;2.17;;
79611;SDS011;69094;48.154;11.536;2024-01-25T15:57:35;7.80;;;2.35;;
79611;SDS011;69094;48.154;11.536;2024-01-25T16:00:00;8.30;;;2.40;;
79611;SDS011;69094;48.154;11.536;2024-01-25T16:02:26;6.72;;;2.25;;
79611;SDS011;69094;48.154;11.536;2024-01-25T16:04:51;9.00;;;1.90;;
79611;SDS011;69094;48.154;11.536;2024-01-25T16:07:18;6.18;;;1.90;;
79611;SDS011;69094;48.154;11.536;2024-01-25T16:09:43;9.07;;;2.08;;
79611;SDS011;69094;48.154;11.536;2024-01-25T16:12:09;6.15;;;2.00;;
79611;SDS011;69094;48.154;11.536;2024-01-25T16:14:35;8.50;;;2.35;;
79611;SDS011;69094;48.154;11.536;2024-01-25T16:17:01;10.90;;;2.22;;
79611;SDS011;69094;48.154;11.536;2024-01-25T16:19:27;11.38;;;2.15;;
79611;SDS011;69094;48.154;11.536;2024-01-25T16:21:52;6.25;;;1.80;;
79611;SDS011;69094;48.154;11.536;2024-01-25T16:24:18;5.10;;;1.88;;
79611;SDS011;69094;48.154;11.536;2024-01-25T16:26:44;7.80;;;2.20;;
79611;SDS011;69094;48.154;11.536;2024-01-25T16:29:09;10.57;;;2.63;;
79611;SDS011;69094;48.154;11.536;2024-01-25T16:31:35;6.50;;;2.28;;
79611;SDS011;69094;48.154;11.536;2024-01-25T16:34:00;12.03;;;4.17;;
79611;SDS011;69094;48.154;11.536;2024-01-25T16:36:26;36.50;;;15.23;;
79611;SDS011;69094;48.154;11.536;2024-01-25T16:38:51;24.48;;;9.18;;
79611;SDS011;69094;48.154;11.536;2024-01-25T16:41:16;31.40;;;12.57;;
79611;SDS011;69094;48.154;11.536;2024-01-25T16:43:42;15.95;;;4.78;;
79611;SDS011;69094;48.154;11.536;2024-01-25T16:46:07;10.13;;;2.80;;
79611;SDS011;69094;48.154;11.536;2024-01-25T16:48:32;10.82;;;3.28;;
79611;SDS011;69094;48.154;11.536;2024-01-25T16:50:58;19.60;;;8.55;;
79611;SDS011;69094;48.154;11.536;2024-01-25T16:53:24;19.77;;;9.55;;
79611;SDS011;69094;48.154;11.536;2024-01-25T16:55:49;17.80;;;7.18;;
79611;SDS011;69094;48.154;11.536;2024-01-25T16:58:15;14.50;;;4.75;;
79611;SDS011;69094;48.154;11.536;2024-01-25T17:00:41;10.63;;;4.18;;
79611;SDS011;69094;48.154;11.536;2024-01-25T17:03:06;14.47;;;4.00;;
79611;SDS011;69094;48.154;11.536;2024-01-25T17:05:32;10.95;;;3.13;;
79611;SDS011;69094;48.154;11.536;2024-01-25T17:07:57;17.08;;;4.80;;